Time;durP1;ratioP1;P1;durP2;ratioP2;P2;SDS_P1;SDS_P2;PMS_P1;PMS_P2;Temp;Humidity;BMP_temperature;BMP_pressure;BME280_temperature;BME280_humidity;BME280_pressure;Samples;Min_cycle;Max_cycle;Signal;HPM_P1;HPM_P2
2022/06/15 08:26:47;;;;;;;5.80;1.60;;;;;;;16.83;57.71;99679.22;1801881;79;22954;-57
2022/06/15 08:29:14;;;;;;;;;;;;;;;16.98;57.99;99678.05;1764531;80;21039;-59
2022/06/15 08:31:40;;;;;;;2.87;1.62;;;;;;;17.19;57.07;99676.03;1762185;80;20096;-60
2022/06/15 08:34:08;;;;;;;8.60;1.50;;;;;;;17.29;57.43;99681.02;1761362;81;21440;-57
2022/06/15 08:36:35;;;;;;;5.50;1.57;;;;;;;17.26;56.95;99676.80;1760367;80;21582;-54
2022/06/15 08:39:01;;;;;;;5.00;1.75;;;;;;;17.34;57.23;99684.66;1760547;81;21559;-53
2022/06/15 08:41:42;;;;;;;8.68;1.60;;;;;;;17.33;57.39;99687.78;1759986;80;21058;-58
2022/06/15 08:44:34;;;;;;;6.45;1.80;;;;;;;17.39;56.89;99679.35;1759889;81;21015;-52
2022/06/15 08:47:53;;;;;;;6.67;1.50;;;;;;;17.59;56.39;99691.55;1759744;81;21046;-58
2022/06/15 08:50:36;;;;;;;3.22;1.25;;;;;;;17.82;56.14;99684.44;1759970;81;21049;-60
2022/06/15 08:53:36;;;;;;;3.72;1.45;;;;;;;17.88;55.55;99687.95;1760577;80;21019;-56
2022/06/15 08:56:29;;;;;;;5.28;1.40;;;;;;;17.77;54.65;99686.61;1760173;81;21142;-59
2022/06/15 08:59:03;;;;;;;3.80;1.30;;;;;;;17.66;54.44;99687.45;1731793;81;21015;-61
2022/06/15 09:02:01;;;;;;;5.10;1.80;;;;;;;17.78;54.89;99677.67;1760221;81;20968;-64
2022/06/15 09:04:59;;;;;;;4.50;1.50;;;;;;;18.01;54.61;99683.38;1759529;81;21547;-54
2022/06/15 09:07:49;;;;;;;8.03;1.52;;;;;;;18.13;53.91;99682.02;1758638;80;21483;-62
2022/06/15 09:10:50;;;;;;;4.20;1.30;;;;;;;18.10;54.08;99688.91;1780100;80;20978;-62
2022/06/15 09:13:48;;;;;;;3.00;1.22;;;;;;;17.96;53.72;99691.36;1777101;81;21097;-52
2022/06/15 09:16:22;;;;;;;10.00;1.90;;;;;;;18.03;54.33;99694.73;1777190;79;21054;-62
2022/06/15 09:19:12;;;;;;;9.20;2.20;;;;;;;18.42;53.63;99688.97;1777259;79;21108;-54
2022/06/15 09:21:43;;;;;;;7.45;1.57;;;;;;;18.93;53.26;99688.81;1776236;79;21118;-54
2022/06/15 09:24:17;;;;;;;4.72;1.75;;;;;;;19.07;51.96;99689.83;1777278;80;21582;-59
2022/06/15 09:26:57;;;;;;;5.90;1.50;;;;;;;19.15;51.59;99677.17;1765490;81;21587;-54
2022/06/15 09:29:45;;;;;;;5.00;1.70;;;;;;;19.60;51.61;99690.71;1763732;80;21062;-54
2022/06/15 09:32:30;;;;;;;9.98;2.02;;;;;;;19.44;50.39;99690.69;1763749;81;21070;-57
2022/06/15 09:35:16;;;;;;;4.95;1.80;;;;;;;19.11;48.56;99680.59;1737771;81;21083;-58
2022/06/15 09:37:50;;;;;;;5.87;1.30;;;;;;;19.21;49.96;99683.80;1763850;80;20979;-53
2022/06/15 09:40:18;;;;;;;4.92;1.65;;;;;;;19.21;51.30;99693.14;1763678;81;21043;-57
2022/06/15 09:42:56;;;;;;;7.28;1.57;;;;;;;19.00;51.47;99689.98;1763739;81;21069;-57
2022/06/15 09:45:33;;;;;;;7.30;1.95;;;;;;;18.85;51.64;99696.62;1762443;81;21159;-52
2022/06/15 09:48:30;;;;;;;6.25;1.55;;;;;;;18.62;52.57;99688.66;1763963;81;21035;-59
2022/06/15 09:51:23;;;;;;;3.35;1.40;;;;;;;18.62;52.57;99688.66;1762716;81;21023;-59
2022/06/15 09:54:06;;;;;;;6.10;1.35;;;;;;;18.63;52.85;99698.82;1763753;80;21117;-56
2022/06/15 09:56:33;;;;;;;3.72;1.40;;;;;;;18.75;52.95;99695.15;1763900;81;21030;-57
2022/06/15 09:59:10;;;;;;;2.62;1.32;;;;;;;19.04;51.25;99695.91;1763885;80;21034;-55
2022/06/15 10:01:42;;;;;;;5.95;1.60;;;;;;;19.47;51.84;99693.09;1762514;80;21027;-59
2022/06/15 10:04:19;;;;;;;3.70;1.35;;;;;;;20.09;52.17;99691.27;1764148;81;21030;-56
2022/06/15 10:07:09;;;;;;;2.30;1.32;;;;;;;20.86;51.10;99683.02;1756062;81;21034;-63
2022/06/15 10:09:40;;;;;;;2.55;1.00;;;;;;;21.77;46.99;99690.59;1747755;82;21063;-59
2022/06/15 10:15:28;;;;;;;4.30;1.20;;;;;;;22.75;46.73;99690.05;1747591;82;21059;-56
2022/06/15 10:17:59;;;;;;;4.65;1.92;;;;;;;22.28;45.50;99690.24;1745580;82;21082;-55
2022/06/15 10:20:35;;;;;;;1.40;1.10;;;;;;;22.07;45.62;99687.30;1747565;82;21001;-61
2022/06/15 10:23:15;;;;;;;2.67;1.10;;;;;;;21.84;45.63;99691.70;1747305;82;21535;-53
2022/06/15 10:25:47;;;;;;;4.40;1.30;;;;;;;21.64;45.44;99683.41;1745686;82;21043;-56
2022/06/15 10:28:17;;;;;;;5.35;0.98;;;;;;;21.53;45.49;99686.27;1746011;82;21540;-57
2022/06/15 10:30:57;;;;;;;3.30;1.10;;;;;;;21.36;45.30;99680.65;1747431;82;21571;-59
2022/06/15 10:33:24;;;;;;;4.78;1.27;;;;;;;21.23;45.39;99681.46;1747565;82;20983;-58
2022/06/15 10:35:57;;;;;;;4.78;1.12;;;;;;;21.00;45.72;99681.76;1747644;82;21008;-54
2022/06/15 10:38:26;;;;;;;2.87;1.27;;;;;;;20.63;45.09;99681.14;1747638;82;21014;-58
2022/06/15 10:43:45;;;;;;;4.65;1.45;;;;;;;21.43;47.17;99677.74;1747625;82;21151;-56
2022/06/15 10:46:10;;;;;;;3.05;1.47;;;;;;;22.00;46.01;99676.84;1747629;82;21050;-62
2022/06/15 10:48:47;;;;;;;3.22;1.00;;;;;;;22.24;45.66;99674.42;1747765;82;21003;-58
2022/06/15 10:51:18;;;;;;;2.90;1.17;;;;;;;22.54;44.58;99676.94;1747323;82;20987;-61
2022/06/15 10:54:12;;;;;;;3.12;1.50;;;;;;;22.63;44.07;99665.33;1745568;82;21039;-57
2022/06/15 11:02:39;;;;;;;6.53;1.50;;;;;;;22.10;43.54;99658.86;1747471;82;21067;-59
2022/06/15 11:05:13;;;;;;;2.58;1.30;;;;;;;21.73;42.97;99654.41;1747766;82;21024;-59
2022/06/15 11:07:58;;;;;;;2.75;1.10;;;;;;;22.51;45.43;99654.48;1747341;82;21074;-58
2022/06/15 11:10:36;;;;;;;3.72;1.40;;;;;;;23.63;45.32;99651.63;1747637;82;21508;-58
2022/06/15 11:13:25;;;;;;;6.90;1.00;;;;;;;24.61;41.74;99656.00;1747472;82;20989;-57
2022/06/15 11:18:44;;;;;;;1.77;1.00;;;;;;;24.58;39.41;99656.86;1747329;81;21067;-54
2022/06/15 11:21:21;;;;;;;7.45;1.20;;;;;;;24.30;39.57;99657.96;1747788;82;21028;-54
2022/06/15 11:24:23;;;;;;;2.30;1.40;;;;;;;24.23;39.96;99660.10;1747614;82;21547;-60
2022/06/15 11:27:03;;;;;;;2.05;1.20;;;;;;;24.62;38.77;99652.83;1747539;82;21075;-56
2022/06/15 11:29:49;;;;;;;2.85;1.10;;;;;;;25.13;38.25;99654.83;1747384;82;21027;-52
2022/06/15 11:32:35;;;;;;;2.30;0.88;;;;;;;25.60;38.30;99650.55;1747870;82;21047;-59
2022/06/15 11:35:41;;;;;;;3.08;1.00;;;;;;;26.06;33.68;99654.77;1747651;82;20992;-57
2022/06/15 11:38:41;;;;;;;2.62;1.30;;;;;;;26.31;36.11;99656.81;1747778;82;21023;-56
2022/06/15 11:41:27;;;;;;;3.15;1.50;;;;;;;26.15;34.12;99659.61;1747465;82;21012;-61
2022/06/15 11:43:56;;;;;;;1.05;0.95;;;;;;;25.40;35.79;99658.19;1747537;82;21046;-57
2022/06/15 11:46:34;;;;;;;2.15;1.05;;;;;;;24.86;35.88;99652.81;1747378;82;21083;-57
2022/06/15 11:49:32;;;;;;;3.15;1.50;;;;;;;24.45;36.63;99657.29;1747063;82;21035;-54
2022/06/15 11:52:07;;;;;;;4.12;1.25;;;;;;;23.77;36.54;99659.08;1758124;80;21065;-58
2022/06/15 11:54:58;;;;;;;7.25;1.20;;;;;;;23.14;37.74;99653.50;1763723;81;21448;-59
2022/06/15 11:58:18;;;;;;;2.10;0.98;;;;;;;22.72;38.71;99652.81;1763316;81;21034;-51
2022/06/15 12:01:25;;;;;;;2.95;1.05;;;;;;;22.42;38.86;99658.41;1763761;81;21041;-58
2022/06/15 12:03:54;;;;;;;;;;;;;;;21.96;39.47;99656.72;1712978;84;21693;-57
2022/06/15 12:06:43;;;;;;;8.35;1.60;;;;;;;21.56;42.08;99658.72;1710528;82;20192;-56
2022/06/15 12:09:20;;;;;;;5.22;1.30;;;;;;;21.45;41.35;99655.72;1709682;84;21071;-56
2022/06/15 12:15:06;;;;;;;2.37;1.12;;;;;;;22.00;41.08;99648.73;1710234;84;21050;-58
2022/06/15 12:17:52;;;;;;;2.20;1.10;;;;;;;22.53;40.33;99643.94;1711046;84;21034;-55
2022/06/15 12:20:34;;;;;;;3.40;1.47;;;;;;;22.52;39.99;99639.59;1710641;84;21051;-58
2022/06/15 12:23:34;;;;;;;4.80;1.30;;;;;;;22.57;40.36;99641.30;1709716;84;21008;-62
2022/06/15 12:26:36;;;;;;;7.40;1.22;;;;;;;22.50;40.23;99638.05;1710071;82;21087;-53
2022/06/15 12:29:18;;;;;;;2.67;1.07;;;;;;;22.21;40.60;99639.06;1710930;84;21267;-59
2022/06/15 12:32:55;;;;;;;3.60;1.10;;;;;;;22.11;40.60;99638.30;1710293;84;21152;-59
2022/06/15 12:34:46;;;;;;;3.42;1.00;;;;;;;21.95;40.40;99643.80;1679062;82;21579;-56
2022/06/15 12:37:37;;;;;;;3.45;1.10;;;;;;;21.73;40.35;99635.67;1721229;81;21088;-57
2022/06/15 12:40:21;;;;;;;6.05;1.50;;;;;;;21.57;40.71;99642.16;1763709;80;21007;-59
2022/06/15 12:42:53;;;;;;;1.87;1.32;;;;;;;21.60;41.09;99636.52;1762633;80;21058;-53
2022/06/15 12:45:38;;;;;;;3.15;1.30;;;;;;;21.59;41.42;99640.17;1763116;80;21117;-52
2022/06/15 12:48:15;;;;;;;1.55;0.90;;;;;;;21.64;41.35;99640.58;1743897;81;21066;-58
2022/06/15 12:51:11;;;;;;;;;;;;;;;21.62;41.22;99642.06;1765652;81;20998;-54
2022/06/15 12:54:06;;;;;;;4.53;1.30;;;;;;;21.47;41.67;99640.36;1735398;81;20156;-55
2022/06/15 12:56:44;;;;;;;5.10;1.20;;;;;;;21.31;41.64;99632.08;1763556;81;21038;-56
2022/06/15 12:59:49;;;;;;;5.87;1.15;;;;;;;21.36;41.91;99624.47;1763190;80;21546;-58
2022/06/15 13:02:23;;;;;;;20.43;1.70;;;;;;;21.41;42.07;99625.35;1763622;80;21508;-54
2022/06/15 13:05:10;;;;;;;4.80;0.90;;;;;;;21.39;41.78;99631.34;1763313;81;21539;-60
2022/06/15 13:07:40;;;;;;;3.02;1.10;;;;;;;21.37;41.53;99629.31;1763643;81;21069;-57
2022/06/15 13:10:17;;;;;;;4.53;1.00;;;;;;;21.38;41.88;99631.84;1763258;81;21015;-49
2022/06/15 13:12:57;;;;;;;2.35;1.32;;;;;;;21.46;41.99;99629.30;1762061;80;21026;-55
2022/06/15 13:15:34;;;;;;;10.20;1.40;;;;;;;21.40;41.58;99621.84;1763567;81;21582;-59
2022/06/15 13:18:09;;;;;;;9.18;1.70;;;;;;;21.35;41.89;99624.61;1761299;81;21007;-58
2022/06/15 13:20:53;;;;;;;4.40;1.20;;;;;;;21.41;42.12;99628.03;1763624;81;21532;-55
2022/06/15 13:23:42;;;;;;;7.97;1.32;;;;;;;21.38;42.01;99620.31;1763327;81;21508;-54
2022/06/15 13:26:13;;;;;;;2.47;1.30;;;;;;;21.37;42.38;99624.80;1765535;81;21011;-52
2022/06/15 13:28:47;;;;;;;1.70;0.95;;;;;;;21.38;42.31;99619.81;1775102;79;21061;-59
2022/06/15 13:31:36;;;;;;;2.00;1.40;;;;;;;21.38;42.37;99629.17;1767203;81;21511;-62
2022/06/15 13:34:05;;;;;;;3.60;1.27;;;;;;;21.41;42.23;99627.55;1774686;79;21018;-54
2022/06/15 13:36:32;;;;;;;3.08;0.98;;;;;;;21.62;42.12;99623.84;1774825;80;21030;-54
2022/06/15 13:38:59;;;;;;;10.32;1.10;;;;;;;21.69;41.45;99617.41;1775008;81;21512;-57
2022/06/15 13:41:29;;;;;;;2.25;0.88;;;;;;;21.81;42.15;99617.53;1774788;81;21050;-60
2022/06/15 13:44:02;;;;;;;6.08;0.95;;;;;;;21.99;41.72;99613.08;1774885;81;20986;-54
2022/06/15 13:46:32;;;;;;;4.35;1.30;;;;;;;22.05;38.91;99612.97;1774701;81;21453;-59
2022/06/15 13:49:16;;;;;;;4.47;1.80;;;;;;;22.21;40.88;99613.14;1774328;81;21093;-58
2022/06/15 13:51:54;;;;;;;2.20;1.32;;;;;;;22.19;40.50;99612.93;1774694;79;21559;-54
2022/06/15 13:54:45;;;;;;;2.30;1.27;;;;;;;22.13;40.69;99609.02;1774352;79;21053;-58
2022/06/15 13:57:42;;;;;;;2.77;1.07;;;;;;;22.27;41.00;99608.20;1774480;81;21552;-58
2022/06/15 14:00:28;;;;;;;2.50;1.30;;;;;;;22.42;40.47;99597.28;1774179;81;21568;-56
2022/06/15 14:03:27;;;;;;;3.70;1.10;;;;;;;22.77;40.72;99604.94;1774852;79;21026;-54
2022/06/15 14:06:01;;;;;;;3.95;1.30;;;;;;;22.85;39.96;99602.34;1769316;79;21472;-59
2022/06/15 14:08:50;;;;;;;2.08;1.07;;;;;;;22.96;39.61;99598.56;1774373;80;21431;-59
2022/06/15 14:11:53;;;;;;;2.80;1.45;;;;;;;23.06;39.20;99593.11;1773993;79;21508;-57
2022/06/15 14:14:44;;;;;;;1.80;1.37;;;;;;;23.02;38.78;99592.55;1774963;81;20991;-53
2022/06/15 14:17:48;;;;;;;2.83;1.15;;;;;;;23.09;38.82;99595.48;1774803;81;21570;-54
2022/06/15 14:20:40;;;;;;;6.67;1.40;;;;;;;22.97;38.12;99590.84;1774745;81;21042;-55
2022/06/15 14:23:08;;;;;;;15.15;1.57;;;;;;;22.87;38.62;99584.25;1774600;81;21089;-51
2022/06/15 14:25:45;;;;;;;2.90;1.10;;;;;;;22.77;39.33;99583.49;1774818;81;21010;-53
2022/06/15 14:28:16;;;;;;;6.60;1.12;;;;;;;22.79;39.21;99585.04;1764412;80;21027;-46
2022/06/15 14:30:47;;;;;;;2.15;0.88;;;;;;;22.78;38.80;99580.66;1763563;81;21500;-56
2022/06/15 14:33:26;;;;;;;1.98;1.12;;;;;;;22.80;38.27;99578.66;1763815;81;21000;-50
2022/06/15 14:36:13;;;;;;;4.22;1.12;;;;;;;22.79;38.40;99577.47;1763918;81;21062;-48
2022/06/15 14:38:42;;;;;;;7.80;1.00;;;;;;;22.74;38.72;99581.98;1763574;80;21019;-54
2022/06/15 14:41:23;;;;;;;4.53;1.00;;;;;;;22.67;38.48;99577.41;1764057;81;20984;-57
2022/06/15 14:43:51;;;;;;;4.58;1.25;;;;;;;22.67;38.87;99576.06;1763491;80;21002;-53
2022/06/15 14:46:22;;;;;;;2.27;1.00;;;;;;;22.59;38.77;99582.17;1763714;81;21046;-53
2022/06/15 14:48:53;;;;;;;3.12;1.42;;;;;;;22.56;38.40;99573.96;1763222;81;21026;-49
2022/06/15 14:51:23;;;;;;;9.78;1.65;;;;;;;22.52;39.03;99571.73;1764063;80;21011;-52
2022/06/15 14:53:58;;;;;;;4.10;0.90;;;;;;;22.53;39.13;99582.30;1763379;80;21037;-54
2022/06/15 14:56:29;;;;;;;5.22;0.90;;;;;;;22.53;38.40;99579.63;1763443;80;21088;-49
2022/06/15 14:59:10;;;;;;;1.42;0.93;;;;;;;22.45;38.81;99573.34;1747256;81;21642;-52
2022/06/15 15:01:58;;;;;;;2.40;0.90;;;;;;;22.41;38.94;99576.83;1744423;82;21032;-49
2022/06/15 15:04:25;;;;;;;3.70;1.05;;;;;;;22.36;38.88;99568.44;1743275;82;20992;-53
2022/06/15 15:08:05;;;;;;;3.83;0.93;;;;;;;22.35;39.14;99568.91;1774089;80;21009;-58
2022/06/15 15:09:30;;;;;;;3.95;0.90;;;;;;;22.41;39.17;99561.63;1754127;80;21670;-51
2022/06/15 15:11:57;;;;;;;1.67;1.00;;;;;;;22.43;39.03;99557.45;1763382;80;21016;-53
2022/06/15 15:14:32;;;;;;;3.02;1.02;;;;;;;22.36;38.22;99555.05;1744098;81;21527;-55
2022/06/15 15:17:04;;;;;;;3.35;0.90;;;;;;;22.33;39.13;99556.17;1757423;81;21172;-48
2022/06/15 15:19:43;;;;;;;3.62;0.98;;;;;;;22.41;39.15;99545.55;1758343;81;21141;-52
2022/06/15 15:22:16;;;;;;;1.67;0.70;;;;;;;22.53;38.46;99546.13;1766764;81;21008;-53
2022/06/15 15:24:53;;;;;;;6.72;1.15;;;;;;;22.49;38.17;99544.76;1767371;80;21067;-56
2022/06/15 15:38:47;;;;;;;1.02;0.80;;;;;;;22.56;37.92;99543.65;1753576;80;21507;-57
2022/06/15 15:41:12;;;;;;;2.27;1.20;;;;;;;22.48;37.65;99540.38;1788354;80;21011;-54
2022/06/15 15:43:40;;;;;;;2.77;1.15;;;;;;;22.49;38.15;99533.20;1777096;80;21424;-56
2022/06/15 15:46:07;;;;;;;2.27;1.30;;;;;;;22.49;38.26;99535.37;1779651;80;21039;-53
2022/06/15 15:48:34;;;;;;;3.05;0.95;;;;;;;22.48;38.55;99535.02;1761203;81;21155;-55
2022/06/15 15:51:00;;;;;;;8.00;1.30;;;;;;;22.48;37.99;99527.49;1777167;80;21059;-53
2022/06/15 15:53:26;;;;;;;1.98;0.88;;;;;;;22.40;38.59;99529.11;1765270;79;20999;-52
2022/06/15 15:55:54;;;;;;;2.22;1.00;;;;;;;22.38;38.53;99524.91;1767955;80;21534;-48
2022/06/15 15:58:22;;;;;;;3.62;1.00;;;;;;;22.29;38.43;99532.55;1756496;80;21050;-53
2022/06/15 16:00:51;;;;;;;4.05;1.07;;;;;;;22.19;38.38;99525.40;1761419;80;21038;-48
2022/06/15 16:03:22;;;;;;;3.15;1.10;;;;;;;22.17;38.67;99522.52;1759620;81;22085;-53
2022/06/15 16:05:50;;;;;;;4.92;1.35;;;;;;;22.20;38.79;99518.20;1759770;81;21015;-51
2022/06/15 16:08:18;;;;;;;6.58;1.32;;;;;;;22.21;39.04;99520.73;1765268;80;21038;-56
2022/06/15 16:10:50;;;;;;;7.40;1.02;;;;;;;22.17;39.25;99520.67;1761327;81;21487;-53
2022/06/15 16:13:17;;;;;;;3.75;1.07;;;;;;;22.19;39.39;99526.73;1760435;80;21034;-49
2022/06/15 16:15:50;;;;;;;5.40;1.00;;;;;;;22.13;39.20;99527.84;1749786;80;20998;-55
2022/06/15 16:18:18;;;;;;;2.35;1.00;;;;;;;22.09;39.09;99529.98;1776940;80;21116;-48
2022/06/15 16:20:45;;;;;;;2.45;0.78;;;;;;;22.04;38.80;99534.45;1759329;81;21539;-53
2022/06/15 16:23:13;;;;;;;;;;;;;;;22.05;38.97;99528.61;1761863;81;21015;-52
2022/06/15 16:25:40;;;;;;;2.72;1.00;;;;;;;21.98;38.34;99522.19;1759183;81;20183;-55
2022/06/15 16:28:08;;;;;;;5.90;0.93;;;;;;;22.10;38.78;99526.80;1751082;81;21020;-56
2022/06/15 16:30:35;;;;;;;6.35;1.57;;;;;;;22.08;38.51;99527.45;1746389;82;21011;-49
2022/06/15 16:33:05;;;;;;;1.70;1.10;;;;;;;22.13;38.61;99525.16;1746538;82;21312;-54
2022/06/15 16:35:33;;;;;;;7.05;1.10;;;;;;;22.15;38.61;99515.97;1751040;81;20997;-50
2022/06/15 16:37:58;;;;;;;2.70;1.10;;;;;;;22.15;38.33;99521.83;1743243;81;21505;-55
2022/06/15 16:40:24;;;;;;;2.47;0.90;;;;;;;22.10;38.21;99518.77;1778815;80;21036;-54
2022/06/15 16:42:50;;;;;;;2.35;1.10;;;;;;;22.06;37.91;99523.59;1756633;80;20957;-56
2022/06/15 16:45:16;;;;;;;5.92;1.47;;;;;;;22.01;37.46;99519.18;1748058;81;21516;-55
2022/06/15 16:47:41;;;;;;;3.98;1.07;;;;;;;21.96;37.67;99517.48;1746026;81;21528;-50
2022/06/15 16:50:09;;;;;;;3.27;0.90;;;;;;;21.93;37.78;99517.78;1739950;81;21020;-48
2022/06/15 16:52:38;;;;;;;10.82;1.50;;;;;;;21.90;37.98;99514.89;1739826;82;21473;-48
2022/06/15 16:55:18;;;;;;;7.40;1.00;;;;;;;21.87;37.98;99514.38;1745992;81;21076;-52
2022/06/15 16:57:45;;;;;;;5.10;0.82;;;;;;;21.83;37.98;99512.51;1748096;81;21559;-51
2022/06/15 17:00:13;;;;;;;1.12;0.98;;;;;;;21.77;37.65;99509.91;1748257;81;21489;-47
2022/06/15 17:02:40;;;;;;;2.85;1.12;;;;;;;21.71;37.96;99504.34;1748261;81;21062;-47
2022/06/15 17:05:08;;;;;;;2.50;0.78;;;;;;;21.70;37.95;99502.14;1748502;82;21083;-50
2022/06/15 17:07:36;;;;;;;2.17;0.80;;;;;;;21.69;37.98;99504.99;1748167;82;21525;-46
2022/06/15 17:10:05;;;;;;;1.50;0.90;;;;;;;21.67;38.18;99501.12;1748223;82;21031;-50
2022/06/15 17:12:31;;;;;;;3.50;0.72;;;;;;;21.66;38.23;99507.45;1747991;81;21004;-50
2022/06/15 17:15:01;;;;;;;3.02;1.10;;;;;;;21.61;38.21;99501.23;1748266;82;20969;-50
2022/06/15 17:17:27;;;;;;;2.60;1.00;;;;;;;21.50;38.31;99497.41;1748407;82;21015;-50
2022/06/15 17:19:52;;;;;;;4.37;1.25;;;;;;;21.49;38.50;99500.26;1748235;81;21004;-48
2022/06/15 17:22:20;;;;;;;1.00;0.80;;;;;;;21.43;38.69;99495.81;1748144;82;20970;-49
2022/06/15 17:24:47;;;;;;;2.77;0.88;;;;;;;21.43;38.71;99490.97;1748076;81;21065;-48
2022/06/15 17:27:13;;;;;;;1.72;1.15;;;;;;;21.36;38.81;99492.05;1750425;81;21019;-50
2022/06/15 17:29:39;;;;;;;3.92;1.10;;;;;;;21.35;38.98;99492.20;1761798;81;21058;-51
2022/06/15 17:32:06;;;;;;;2.90;0.88;;;;;;;21.27;39.06;99492.95;1791183;80;21046;-49
2022/06/15 17:34:33;;;;;;;;;;;;;;;21.26;39.35;99492.59;1775600;79;20969;-49
2022/06/15 17:37:02;;;;;;;1.67;1.02;;;;;;;21.21;39.58;99496.20;1774563;80;20137;-49
2022/06/15 17:39:29;;;;;;;5.30;1.10;;;;;;;21.14;39.57;99490.63;1787402;80;21523;-48
2022/06/15 17:41:58;;;;;;;2.08;1.10;;;;;;;21.12;40.03;99486.39;1776887;79;21002;-50
2022/06/15 17:44:29;;;;;;;4.35;1.40;;;;;;;21.08;40.15;99489.85;1782527;80;21042;-49
2022/06/15 17:47:00;;;;;;;2.47;1.17;;;;;;;21.00;40.53;99486.59;1782621;80;21050;-51
2022/06/15 17:49:34;;;;;;;2.92;1.25;;;;;;;20.94;40.74;99485.85;1769506;79;20987;-49
2022/06/15 17:51:58;;;;;;;2.42;0.90;;;;;;;20.83;40.65;99477.98;1781216;80;21515;-49
2022/06/15 17:54:25;;;;;;;2.22;0.98;;;;;;;20.82;40.60;99479.00;1782871;80;21592;-47
2022/06/15 17:56:52;;;;;;;8.25;1.30;;;;;;;20.75;40.53;99479.23;1782821;80;21023;-51
2022/06/15 17:59:22;;;;;;;2.92;0.95;;;;;;;20.73;40.59;99481.20;1782624;80;20999;-48
2022/06/15 18:01:51;;;;;;;8.48;1.10;;;;;;;20.67;40.61;99477.30;1782600;79;21078;-49
2022/06/15 18:04:21;;;;;;;2.83;1.22;;;;;;;20.59;41.12;99476.66;1782569;80;21224;-51
2022/06/15 18:06:47;;;;;;;2.25;1.30;;;;;;;20.54;41.07;99474.91;1782576;79;21573;-51
2022/06/15 18:09:14;;;;;;;3.47;1.17;;;;;;;20.52;41.16;99475.05;1782829;80;21225;-48
2022/06/15 18:11:43;;;;;;;4.40;1.27;;;;;;;20.49;41.45;99477.16;1783067;79;20994;-50
2022/06/15 18:14:14;;;;;;;2.98;1.27;;;;;;;20.41;41.63;99473.02;1782614;80;20991;-49
2022/06/15 18:16:44;;;;;;;4.33;1.22;;;;;;;20.35;41.75;99476.27;1782620;80;21563;-51
2022/06/15 18:19:14;;;;;;;2.87;1.25;;;;;;;20.22;42.01;99480.08;1782482;79;21499;-50
2022/06/15 18:21:44;;;;;;;2.52;1.20;;;;;;;20.17;42.00;99475.64;1782723;80;21030;-50
2022/06/15 18:24:15;;;;;;;1.92;1.12;;;;;;;20.08;42.18;99476.02;1782792;80;21017;-49
2022/06/15 18:26:44;;;;;;;5.37;1.57;;;;;;;20.04;42.38;99479.11;1782592;80;21093;-50
2022/06/15 18:29:11;;;;;;;4.58;1.50;;;;;;;20.00;42.62;99475.87;1774969;80;21524;-47
2022/06/15 18:31:42;;;;;;;2.65;1.25;;;;;;;19.96;42.78;99478.98;1774164;80;21926;-48
2022/06/15 18:34:11;;;;;;;1.77;1.20;;;;;;;19.91;42.68;99482.89;1774310;79;21039;-47
2022/06/15 18:36:36;;;;;;;3.22;1.30;;;;;;;19.86;42.72;99479.79;1773929;80;21027;-50
2022/06/15 18:39:04;;;;;;;3.75;1.85;;;;;;;19.85;42.73;99483.46;1774356;79;20995;-51
2022/06/15 18:41:30;;;;;;;3.17;1.45;;;;;;;19.82;43.01;99482.39;1774096;81;21062;-51
2022/06/15 18:49:25;;;;;;;6.90;1.90;;;;;;;19.70;43.20;99478.13;1773878;81;21050;-50
2022/06/15 18:51:51;;;;;;;3.15;1.60;;;;;;;19.64;43.23;99483.53;1774038;80;21353;-49
2022/06/15 18:54:17;;;;;;;3.92;1.72;;;;;;;19.61;43.40;99484.30;1754730;81;21360;-48
2022/06/15 18:56:43;;;;;;;3.80;1.50;;;;;;;19.56;43.46;99489.56;1774069;81;21633;-48
2022/06/15 18:59:10;;;;;;;8.20;2.05;;;;;;;19.51;43.64;99485.13;1774485;79;21058;-51
2022/06/15 19:01:36;;;;;;;6.62;1.60;;;;;;;19.49;43.86;99492.93;1774431;80;21500;-49
2022/06/15 19:04:03;;;;;;;10.93;1.80;;;;;;;19.42;45.21;99491.29;1773978;81;20983;-50
2022/06/15 19:06:30;;;;;;;5.90;1.80;;;;;;;19.31;45.80;99494.91;1774198;81;21011;-49
2022/06/15 19:08:56;;;;;;;;;;;;;;;19.21;46.68;99501.19;1776751;79;21042;-48
2022/06/15 19:11:24;;;;;;;3.85;1.47;;;;;;;19.00;47.79;99500.77;1774068;81;20441;-49
2022/06/15 19:13:51;;;;;;;5.95;2.08;;;;;;;19.00;47.79;99500.77;1773615;81;21503;-49
2022/06/15 19:16:18;;;;;;;7.00;1.80;;;;;;;18.92;47.77;99502.77;1724961;82;21058;-49
2022/06/15 19:18:44;;;;;;;6.47;2.20;;;;;;;18.87;48.01;99509.48;1718708;82;21016;-53
2022/06/15 19:21:12;;;;;;;16.00;1.98;;;;;;;18.78;48.29;99506.58;1718521;83;21027;-54
2022/06/15 19:23:37;;;;;;;10.05;2.37;;;;;;;18.73;48.77;99500.80;1718502;82;21102;-51
2022/06/15 19:26:09;;;;;;;6.25;2.30;;;;;;;18.66;49.21;99507.63;1718608;82;21130;-51
2022/06/15 19:28:35;;;;;;;7.97;2.42;;;;;;;18.58;49.52;99502.12;1725015;81;21032;-52
2022/06/15 19:31:06;;;;;;;9.73;1.77;;;;;;;18.51;49.97;99506.28;1731557;82;21035;-52
2022/06/15 19:33:32;;;;;;;6.87;1.75;;;;;;;18.43;50.21;99508.28;1731431;83;21054;-50
2022/06/15 19:35:57;;;;;;;2.62;1.77;;;;;;;18.34;50.49;99505.90;1731674;83;20995;-50
2022/06/15 19:38:24;;;;;;;7.72;1.95;;;;;;;18.29;50.61;99503.27;1731604;82;21023;-51
2022/06/15 19:40:50;;;;;;;4.10;1.98;;;;;;;18.23;50.86;99501.97;1731511;82;21035;-51
2022/06/15 19:43:31;;;;;;;11.50;1.85;;;;;;;18.16;51.75;99499.46;1731526;82;21026;-51
2022/06/15 19:45:57;;;;;;;5.62;1.95;;;;;;;18.12;51.93;99500.67;1731495;82;21168;-51
2022/06/15 19:48:23;;;;;;;15.03;2.30;;;;;;;18.06;51.90;99507.84;1731642;82;21046;-47
2022/06/15 19:50:50;;;;;;;8.10;2.27;;;;;;;18.01;52.22;99510.91;1731316;82;21523;-51
2022/06/15 19:53:19;;;;;;;8.13;2.15;;;;;;;17.98;52.64;99509.81;1731587;82;21211;-51
2022/06/15 19:55:46;;;;;;;7.37;2.20;;;;;;;17.93;53.11;99509.34;1731407;82;21571;-53
2022/06/15 19:58:13;;;;;;;12.85;2.72;;;;;;;17.90;53.73;99506.47;1731644;81;21031;-48
2022/06/15 20:00:40;;;;;;;14.13;2.72;;;;;;;17.86;53.41;99500.18;1731332;82;21028;-47
2022/06/15 20:03:07;;;;;;;13.08;2.67;;;;;;;17.80;53.42;99506.81;1731392;83;21543;-51
2022/06/15 20:05:35;;;;;;;8.48;2.45;;;;;;;17.75;53.57;99499.70;1731609;82;21049;-49
2022/06/15 20:08:03;;;;;;;13.72;3.47;;;;;;;17.70;54.27;99495.23;1731374;82;21219;-52
2022/06/15 20:10:30;;;;;;;10.45;2.70;;;;;;;17.65;54.36;99495.12;1731481;81;21484;-49
2022/06/15 20:12:55;;;;;;;10.03;3.08;;;;;;;17.61;54.63;99489.70;1731764;81;21030;-51
2022/06/15 20:15:23;;;;;;;13.85;2.58;;;;;;;17.58;55.00;99495.27;1731416;82;21038;-52
2022/06/15 20:17:52;;;;;;;10.38;2.90;;;;;;;17.56;55.10;99493.72;1731729;81;21054;-50
2022/06/15 20:20:27;;;;;;;11.00;3.02;;;;;;;17.53;55.75;99489.97;1731646;82;21023;-48
2022/06/15 20:22:57;;;;;;;10.15;3.22;;;;;;;17.49;55.91;99492.52;1730503;82;21015;-57
2022/06/15 20:25:26;;;;;;;10.25;3.17;;;;;;;17.44;56.29;99496.41;1731362;82;21091;-52
2022/06/15 20:28:03;;;;;;;12.33;3.45;;;;;;;17.39;56.70;99494.59;1731452;82;21042;-47
2022/06/15 20:30:30;;;;;;;10.48;3.27;;;;;;;17.37;55.98;99502.31;1715047;83;21015;-50
2022/06/15 20:32:56;;;;;;;7.72;3.17;;;;;;;17.33;56.13;99500.88;1731419;83;21105;-48
2022/06/15 20:35:22;;;;;;;13.40;3.62;;;;;;;17.30;55.87;99498.45;1731375;82;21560;-52
2022/06/15 20:37:53;;;;;;;13.38;4.28;;;;;;;17.28;56.25;99497.24;1731453;82;21038;-50
2022/06/15 20:40:16;;;;;;;8.85;4.00;;;;;;;17.27;56.15;99493.75;1731023;82;21059;-49
2022/06/15 20:42:44;;;;;;;14.65;3.67;;;;;;;17.26;55.89;99498.72;1731663;82;21591;-49
2022/06/15 20:45:12;;;;;;;12.43;3.70;;;;;;;17.26;56.14;99493.41;1731353;82;20987;-48
2022/06/15 20:47:42;;;;;;;10.08;3.90;;;;;;;17.23;56.43;99501.61;1731358;82;21070;-48
2022/06/15 20:50:12;;;;;;;12.45;4.03;;;;;;;17.21;57.06;99489.43;1731272;82;21066;-49
2022/06/15 20:52:39;;;;;;;19.10;3.95;;;;;;;17.16;56.50;99488.45;1731401;82;21074;-49
2022/06/15 20:55:07;;;;;;;16.25;4.97;;;;;;;17.14;56.72;99485.56;1731500;82;21070;-51
2022/06/15 20:57:36;;;;;;;10.32;4.10;;;;;;;17.10;56.84;99479.66;1731330;82;21651;-47
2022/06/15 21:00:07;;;;;;;13.45;4.45;;;;;;;17.08;56.89;99481.56;1730959;82;21047;-52
2022/06/15 21:02:33;;;;;;;12.75;3.80;;;;;;;17.04;57.27;99483.61;1731407;82;21026;-52
2022/06/15 21:04:59;;;;;;;11.25;3.30;;;;;;;17.01;57.61;99489.19;1731599;83;21074;-50
2022/06/15 21:07:26;;;;;;;11.12;3.80;;;;;;;16.97;58.11;99489.54;1731467;82;20991;-47
2022/06/15 21:18:08;;;;;;;12.85;5.70;;;;;;;16.89;58.40;99487.00;1731293;83;21607;-49